Terminal Aerodrome Forecast
Issued by NWS

Home | Current Version | Previous Version | Text Only | Print | Product List | Glossary On
Versions: 1 2 3 4 5 6 7 8 9 10 11 12 13 14 15 16 17 18 19 20 21
000
FTUS43 KDTX 231314 AAA
TAFMBS
TAF AMD
KMBS 231314Z 2313/2412 VRB03KT 1/2SM FG VV001
     FM231400 VRB03KT 3SM BR SCT007
     FM231500 26005KT P6SM SKC
     FM240400 22004KT P6SM BKN120
     FM240900 20006KT P6SM OVC070=

USA.gov is the U.S. government's official web portal to all federal, state and local government web resources and services.